sensor_id;sensor_type;location;lat;lon;timestamp;temperature;humidity
76967;DHT22;65904;52.278;20.972;2023-07-09T00:00:02;19.10;99.90
76967;DHT22;65904;52.278;20.972;2023-07-09T00:03:17;19.10;99.90
76967;DHT22;65904;52.278;20.972;2023-07-09T00:06:04;19.10;99.90
76967;DHT22;65904;52.278;20.972;2023-07-09T00:08:53;19.10;99.90
76967;DHT22;65904;52.278;20.972;2023-07-09T00:11:39;19.10;99.90
76967;DHT22;65904;52.278;20.972;2023-07-09T00:14:26;19.10;99.90
76967;DHT22;65904;52.278;20.972;2023-07-09T00:17:29;19.10;99.90
76967;DHT22;65904;52.278;20.972;2023-07-09T00:20:19;19.00;99.90
76967;DHT22;65904;52.278;20.972;2023-07-09T00:23:05;19.00;99.90
76967;DHT22;65904;52.278;20.972;2023-07-09T00:25:52;19.00;99.90
76967;DHT22;65904;52.278;20.972;2023-07-09T00:28:38;19.00;99.90
76967;DHT22;65904;52.278;20.972;2023-07-09T00:31:26;18.90;99.90
76967;DHT22;65904;52.278;20.972;2023-07-09T00:34:14;18.90;99.90
76967;DHT22;65904;52.278;20.972;2023-07-09T00:37:09;18.90;99.90
76967;DHT22;65904;52.278;20.972;2023-07-09T00:39:56;18.90;99.90
76967;DHT22;65904;52.278;20.972;2023-07-09T00:42:44;18.80;99.90
76967;DHT22;65904;52.278;20.972;2023-07-09T00:45:31;18.80;99.90
76967;DHT22;65904;52.278;20.972;2023-07-09T00:48:18;18.70;99.90
76967;DHT22;65904;52.278;20.972;2023-07-09T00:51:09;18.70;99.90
76967;DHT22;65904;52.278;20.972;2023-07-09T00:54:03;18.60;99.90
76967;DHT22;65904;52.278;20.972;2023-07-09T00:56:54;18.60;99.90
76967;DHT22;65904;52.278;20.972;2023-07-09T00:59:42;18.60;99.90
76967;DHT22;65904;52.278;20.972;2023-07-09T01:02:29;18.50;99.90
76967;DHT22;65904;52.278;20.972;2023-07-09T01:05:16;18.50;99.90
76967;DHT22;65904;52.278;20.972;2023-07-09T01:08:06;18.40;99.90
76967;DHT22;65904;52.278;20.972;2023-07-09T01:10:55;18.30;99.90
76967;DHT22;65904;52.278;20.972;2023-07-09T01:13:42;18.30;99.90
76967;DHT22;65904;52.278;20.972;2023-07-09T01:16:32;18.20;99.90
76967;DHT22;65904;52.278;20.972;2023-07-09T01:19:22;18.20;99.90
76967;DHT22;65904;52.278;20.972;2023-07-09T01:22:11;18.20;99.90
76967;DHT22;65904;52.278;20.972;2023-07-09T01:25:00;18.20;99.90
76967;DHT22;65904;52.278;20.972;2023-07-09T01:27:48;18.20;99.90
76967;DHT22;65904;52.278;20.972;2023-07-09T01:30:36;18.10;99.90
76967;DHT22;65904;52.278;20.972;2023-07-09T01:33:23;18.10;99.90
76967;DHT22;65904;52.278;20.972;2023-07-09T01:36:11;18.10;99.90
76967;DHT22;65904;52.278;20.972;2023-07-09T01:39:00;18.00;99.90
76967;DHT22;65904;52.278;20.972;2023-07-09T01:41:46;18.00;99.90
76967;DHT22;65904;52.278;20.972;2023-07-09T01:44:33;17.90;99.90
76967;DHT22;65904;52.278;20.972;2023-07-09T01:47:21;17.90;99.90
76967;DHT22;65904;52.278;20.972;2023-07-09T01:50:09;17.90;99.90
76967;DHT22;65904;52.278;20.972;2023-07-09T01:52:55;17.90;99.90
76967;DHT22;65904;52.278;20.972;2023-07-09T01:55:44;17.80;99.90
76967;DHT22;65904;52.278;20.972;2023-07-09T01:58:30;17.70;99.90
76967;DHT22;65904;52.278;20.972;2023-07-09T02:01:17;17.70;99.90
76967;DHT22;65904;52.278;20.972;2023-07-09T02:04:04;17.70;99.90
76967;DHT22;65904;52.278;20.972;2023-07-09T02:06:50;17.70;99.90
76967;DHT22;65904;52.278;20.972;2023-07-09T02:09:36;17.70;99.90
76967;DHT22;65904;52.278;20.972;2023-07-09T02:12:24;17.70;99.90
76967;DHT22;65904;52.278;20.972;2023-07-09T02:15:11;17.70;99.90
76967;DHT22;65904;52.278;20.972;2023-07-09T02:17:57;17.70;99.90
76967;DHT22;65904;52.278;20.972;2023-07-09T02:20:46;17.60;99.90
76967;DHT22;65904;52.278;20.972;2023-07-09T02:23:32;17.60;99.90
76967;DHT22;65904;52.278;20.972;2023-07-09T02:26:18;17.60;99.90
76967;DHT22;65904;52.278;20.972;2023-07-09T02:29:06;17.60;99.90
76967;DHT22;65904;52.278;20.972;2023-07-09T02:31:54;17.60;99.90
76967;DHT22;65904;52.278;20.972;2023-07-09T02:34:41;17.50;99.90
76967;DHT22;65904;52.278;20.972;2023-07-09T02:37:27;17.50;99.90
76967;DHT22;65904;52.278;20.972;2023-07-09T02:40:14;17.50;99.90
76967;DHT22;65904;52.278;20.972;2023-07-09T02:43:00;17.40;99.90
76967;DHT22;65904;52.278;20.972;2023-07-09T02:45:47;17.40;99.90
76967;DHT22;65904;52.278;20.972;2023-07-09T02:48:33;17.40;99.90
76967;DHT22;65904;52.278;20.972;2023-07-09T02:51:20;17.30;99.90
76967;DHT22;65904;52.278;20.972;2023-07-09T02:54:06;17.20;99.90
76967;DHT22;65904;52.278;20.972;2023-07-09T02:56:53;17.20;99.90
76967;DHT22;65904;52.278;20.972;2023-07-09T02:59:40;17.20;99.90
76967;DHT22;65904;52.278;20.972;2023-07-09T03:02:28;17.20;99.90
76967;DHT22;65904;52.278;20.972;2023-07-09T03:05:15;17.20;99.90
76967;DHT22;65904;52.278;20.972;2023-07-09T03:08:01;17.20;99.90
76967;DHT22;65904;52.278;20.972;2023-07-09T03:10:47;17.30;99.90
76967;DHT22;65904;52.278;20.972;2023-07-09T03:13:34;17.20;99.90
76967;DHT22;65904;52.278;20.972;2023-07-09T03:16:20;17.20;99.90
76967;DHT22;65904;52.278;20.972;2023-07-09T03:19:08;17.20;99.90
76967;DHT22;65904;52.278;20.972;2023-07-09T03:21:54;17.20;99.90
76967;DHT22;65904;52.278;20.972;2023-07-09T03:24:40;17.20;99.90
76967;DHT22;65904;52.278;20.972;2023-07-09T03:27:26;17.10;99.90
76967;DHT22;65904;52.278;20.972;2023-07-09T03:30:12;17.10;99.90
76967;DHT22;65904;52.278;20.972;2023-07-09T03:32:59;17.20;99.90
76967;DHT22;65904;52.278;20.972;2023-07-09T03:35:47;17.20;99.90
76967;DHT22;65904;52.278;20.972;2023-07-09T03:38:33;17.20;99.90
76967;DHT22;65904;52.278;20.972;2023-07-09T03:41:19;17.20;99.90
76967;DHT22;65904;52.278;20.972;2023-07-09T03:44:06;17.20;99.90
76967;DHT22;65904;52.278;20.972;2023-07-09T03:46:52;17.20;99.90
76967;DHT22;65904;52.278;20.972;2023-07-09T03:49:38;17.30;99.90
76967;DHT22;65904;52.278;20.972;2023-07-09T03:52:28;17.20;99.90
76967;DHT22;65904;52.278;20.972;2023-07-09T03:55:13;17.30;99.90
76967;DHT22;65904;52.278;20.972;2023-07-09T03:58:00;17.40;99.90
76967;DHT22;65904;52.278;20.972;2023-07-09T04:00:47;17.40;99.90
76967;DHT22;65904;52.278;20.972;2023-07-09T04:03:34;17.40;99.90
76967;DHT22;65904;52.278;20.972;2023-07-09T04:06:20;17.40;99.90
76967;DHT22;65904;52.278;20.972;2023-07-09T04:09:07;17.50;99.90
76967;DHT22;65904;52.278;20.972;2023-07-09T04:11:53;17.60;99.90
76967;DHT22;65904;52.278;20.972;2023-07-09T04:14:39;17.60;99.90
76967;DHT22;65904;52.278;20.972;2023-07-09T04:17:26;17.70;99.90
76967;DHT22;65904;52.278;20.972;2023-07-09T04:20:12;17.70;99.90
76967;DHT22;65904;52.278;20.972;2023-07-09T04:22:59;17.70;99.90
76967;DHT22;65904;52.278;20.972;2023-07-09T04:25:47;17.70;99.90
76967;DHT22;65904;52.278;20.972;2023-07-09T04:28:33;17.70;99.90
76967;DHT22;65904;52.278;20.972;2023-07-09T04:31:19;17.90;99.90
76967;DHT22;65904;52.278;20.972;2023-07-09T04:34:05;18.00;99.90
76967;DHT22;65904;52.278;20.972;2023-07-09T04:36:52;18.00;99.90
76967;DHT22;65904;52.278;20.972;2023-07-09T04:39:38;18.00;99.90
76967;DHT22;65904;52.278;20.972;2023-07-09T04:42:26;18.00;99.90
76967;DHT22;65904;52.278;20.972;2023-07-09T04:45:13;18.10;99.90
76967;DHT22;65904;52.278;20.972;2023-07-09T04:47:59;18.10;99.90
76967;DHT22;65904;52.278;20.972;2023-07-09T04:50:45;18.10;99.90
76967;DHT22;65904;52.278;20.972;2023-07-09T04:53:35;18.10;99.90
76967;DHT22;65904;52.278;20.972;2023-07-09T04:56:21;18.30;99.90
76967;DHT22;65904;52.278;20.972;2023-07-09T04:59:09;18.30;99.90
76967;DHT22;65904;52.278;20.972;2023-07-09T05:01:56;18.40;99.90
76967;DHT22;65904;52.278;20.972;2023-07-09T05:04:42;18.50;99.90
76967;DHT22;65904;52.278;20.972;2023-07-09T05:07:29;18.60;99.90
76967;DHT22;65904;52.278;20.972;2023-07-09T05:10:17;18.70;99.90
76967;DHT22;65904;52.278;20.972;2023-07-09T05:13:03;18.80;99.90
76967;DHT22;65904;52.278;20.972;2023-07-09T05:15:51;18.80;99.90
76967;DHT22;65904;52.278;20.972;2023-07-09T05:18:37;18.90;99.90
76967;DHT22;65904;52.278;20.972;2023-07-09T05:21:23;19.00;99.90
76967;DHT22;65904;52.278;20.972;2023-07-09T05:24:10;19.00;99.90
76967;DHT22;65904;52.278;20.972;2023-07-09T05:26:56;19.10;99.90
76967;DHT22;65904;52.278;20.972;2023-07-09T05:29:42;19.10;99.90
76967;DHT22;65904;52.278;20.972;2023-07-09T05:32:30;19.20;99.90
76967;DHT22;65904;52.278;20.972;2023-07-09T05:35:16;19.30;99.90
76967;DHT22;65904;52.278;20.972;2023-07-09T05:38:02;19.50;99.90
76967;DHT22;65904;52.278;20.972;2023-07-09T05:40:57;19.50;99.90
76967;DHT22;65904;52.278;20.972;2023-07-09T05:43:45;19.70;99.90
76967;DHT22;65904;52.278;20.972;2023-07-09T05:46:34;19.90;99.90
76967;DHT22;65904;52.278;20.972;2023-07-09T05:49:22;20.00;99.90
76967;DHT22;65904;52.278;20.972;2023-07-09T05:52:09;20.10;99.90
76967;DHT22;65904;52.278;20.972;2023-07-09T05:54:55;20.10;99.90
76967;DHT22;65904;52.278;20.972;2023-07-09T05:57:41;20.10;99.90
76967;DHT22;65904;52.278;20.972;2023-07-09T06:00:27;20.10;99.90
76967;DHT22;65904;52.278;20.972;2023-07-09T06:03:13;20.10;99.90
76967;DHT22;65904;52.278;20.972;2023-07-09T06:06:01;20.30;99.90
76967;DHT22;65904;52.278;20.972;2023-07-09T06:08:47;20.20;99.90
76967;DHT22;65904;52.278;20.972;2023-07-09T06:11:35;20.30;99.90
76967;DHT22;65904;52.278;20.972;2023-07-09T06:14:21;20.40;99.90
76967;DHT22;65904;52.278;20.972;2023-07-09T06:17:08;20.50;99.90
76967;DHT22;65904;52.278;20.972;2023-07-09T06:19:54;20.60;99.90
76967;DHT22;65904;52.278;20.972;2023-07-09T06:22:42;20.60;99.90
76967;DHT22;65904;52.278;20.972;2023-07-09T06:25:28;20.70;99.90
76967;DHT22;65904;52.278;20.972;2023-07-09T06:28:15;20.80;99.90
76967;DHT22;65904;52.278;20.972;2023-07-09T06:31:01;20.80;99.90
76967;DHT22;65904;52.278;20.972;2023-07-09T06:33:47;20.80;99.90
76967;DHT22;65904;52.278;20.972;2023-07-09T06:36:35;21.00;99.90
76967;DHT22;65904;52.278;20.972;2023-07-09T06:39:22;21.10;99.90
76967;DHT22;65904;52.278;20.972;2023-07-09T06:42:08;21.20;99.90
76967;DHT22;65904;52.278;20.972;2023-07-09T06:45:13;21.30;99.90
76967;DHT22;65904;52.278;20.972;2023-07-09T06:48:00;21.30;99.90
76967;DHT22;65904;52.278;20.972;2023-07-09T06:50:46;21.40;99.90
76967;DHT22;65904;52.278;20.972;2023-07-09T06:53:33;21.50;99.90
76967;DHT22;65904;52.278;20.972;2023-07-09T06:56:22;21.50;99.90
76967;DHT22;65904;52.278;20.972;2023-07-09T06:59:08;21.60;99.90
76967;DHT22;65904;52.278;20.972;2023-07-09T07:01:55;21.70;99.90
76967;DHT22;65904;52.278;20.972;2023-07-09T07:04:42;21.80;99.90
76967;DHT22;65904;52.278;20.972;2023-07-09T07:07:28;22.00;99.90
76967;DHT22;65904;52.278;20.972;2023-07-09T07:10:14;22.10;99.90
76967;DHT22;65904;52.278;20.972;2023-07-09T07:13:02;22.20;99.90
76967;DHT22;65904;52.278;20.972;2023-07-09T07:15:48;22.20;99.90
76967;DHT22;65904;52.278;20.972;2023-07-09T07:18:35;22.30;99.90
76967;DHT22;65904;52.278;20.972;2023-07-09T07:21:21;22.40;99.90
76967;DHT22;65904;52.278;20.972;2023-07-09T07:24:07;22.50;99.90
76967;DHT22;65904;52.278;20.972;2023-07-09T07:26:54;22.40;99.90
76967;DHT22;65904;52.278;20.972;2023-07-09T07:29:41;22.60;99.90
76967;DHT22;65904;52.278;20.972;2023-07-09T07:32:27;22.70;99.90
76967;DHT22;65904;52.278;20.972;2023-07-09T07:35:14;22.60;99.90
76967;DHT22;65904;52.278;20.972;2023-07-09T07:38:00;22.70;99.90
76967;DHT22;65904;52.278;20.972;2023-07-09T07:40:46;22.70;99.90
76967;DHT22;65904;52.278;20.972;2023-07-09T07:43:32;22.70;99.90
76967;DHT22;65904;52.278;20.972;2023-07-09T07:46:20;22.70;99.90
76967;DHT22;65904;52.278;20.972;2023-07-09T07:49:06;22.90;99.90
76967;DHT22;65904;52.278;20.972;2023-07-09T07:51:52;23.10;99.90
76967;DHT22;65904;52.278;20.972;2023-07-09T07:54:38;23.10;99.90
76967;DHT22;65904;52.278;20.972;2023-07-09T07:57:25;23.20;99.90
76967;DHT22;65904;52.278;20.972;2023-07-09T08:00:12;23.00;99.90
76967;DHT22;65904;52.278;20.972;2023-07-09T08:03:00;22.90;99.90
76967;DHT22;65904;52.278;20.972;2023-07-09T08:05:48;22.70;99.90
76967;DHT22;65904;52.278;20.972;2023-07-09T08:08:35;22.80;99.90
76967;DHT22;65904;52.278;20.972;2023-07-09T08:11:21;23.10;99.90
76967;DHT22;65904;52.278;20.972;2023-07-09T08:14:07;23.40;99.90
76967;DHT22;65904;52.278;20.972;2023-07-09T08:16:53;23.60;99.90
76967;DHT22;65904;52.278;20.972;2023-07-09T08:19:48;23.80;99.90
76967;DHT22;65904;52.278;20.972;2023-07-09T08:22:35;24.00;99.90
76967;DHT22;65904;52.278;20.972;2023-07-09T08:25:21;24.10;99.90
76967;DHT22;65904;52.278;20.972;2023-07-09T08:28:06;24.10;99.90
76967;DHT22;65904;52.278;20.972;2023-07-09T08:30:53;24.10;99.90
76967;DHT22;65904;52.278;20.972;2023-07-09T08:33:39;24.00;99.90
76967;DHT22;65904;52.278;20.972;2023-07-09T08:36:27;24.00;99.90
76967;DHT22;65904;52.278;20.972;2023-07-09T08:39:15;24.10;99.90
76967;DHT22;65904;52.278;20.972;2023-07-09T08:42:03;24.20;99.90
76967;DHT22;65904;52.278;20.972;2023-07-09T08:45:07;24.20;99.90
76967;DHT22;65904;52.278;20.972;2023-07-09T08:48:03;24.40;99.90
76967;DHT22;65904;52.278;20.972;2023-07-09T08:50:55;24.40;99.90
76967;DHT22;65904;52.278;20.972;2023-07-09T08:53:49;24.30;99.90
76967;DHT22;65904;52.278;20.972;2023-07-09T08:56:36;24.40;99.90
76967;DHT22;65904;52.278;20.972;2023-07-09T08:59:22;24.60;99.90
76967;DHT22;65904;52.278;20.972;2023-07-09T09:02:16;24.70;99.90
76967;DHT22;65904;52.278;20.972;2023-07-09T09:05:07;25.20;99.90
76967;DHT22;65904;52.278;20.972;2023-07-09T09:08:01;25.50;99.40
76967;DHT22;65904;52.278;20.972;2023-07-09T09:10:56;25.70;96.60
76967;DHT22;65904;52.278;20.972;2023-07-09T09:13:45;25.50;95.50
76967;DHT22;65904;52.278;20.972;2023-07-09T09:16:35;25.50;94.30
76967;DHT22;65904;52.278;20.972;2023-07-09T09:19:26;25.80;94.20
76967;DHT22;65904;52.278;20.972;2023-07-09T09:22:16;26.00;94.20
76967;DHT22;65904;52.278;20.972;2023-07-09T09:25:15;26.20;93.70
76967;DHT22;65904;52.278;20.972;2023-07-09T09:28:04;26.40;92.10
76967;DHT22;65904;52.278;20.972;2023-07-09T09:30:50;26.40;91.50
76967;DHT22;65904;52.278;20.972;2023-07-09T09:33:39;26.60;89.80
76967;DHT22;65904;52.278;20.972;2023-07-09T09:36:26;26.60;89.40
76967;DHT22;65904;52.278;20.972;2023-07-09T09:39:13;26.80;90.10
76967;DHT22;65904;52.278;20.972;2023-07-09T09:41:59;27.10;89.70
76967;DHT22;65904;52.278;20.972;2023-07-09T09:44:47;27.80;89.10
76967;DHT22;65904;52.278;20.972;2023-07-09T09:47:33;28.40;83.60
76967;DHT22;65904;52.278;20.972;2023-07-09T09:50:21;28.80;83.00
76967;DHT22;65904;52.278;20.972;2023-07-09T09:53:11;29.00;78.90
76967;DHT22;65904;52.278;20.972;2023-07-09T09:55:59;29.00;77.60
76967;DHT22;65904;52.278;20.972;2023-07-09T09:58:53;29.00;75.90
76967;DHT22;65904;52.278;20.972;2023-07-09T10:01:41;28.90;73.50
76967;DHT22;65904;52.278;20.972;2023-07-09T10:04:28;28.70;72.30
76967;DHT22;65904;52.278;20.972;2023-07-09T10:07:21;28.60;73.10
76967;DHT22;65904;52.278;20.972;2023-07-09T10:10:13;29.10;74.80
76967;DHT22;65904;52.278;20.972;2023-07-09T10:13:07;29.40;71.30
76967;DHT22;65904;52.278;20.972;2023-07-09T10:16:03;29.60;68.80
76967;DHT22;65904;52.278;20.972;2023-07-09T10:18:56;29.50;70.00
76967;DHT22;65904;52.278;20.972;2023-07-09T10:21:49;29.20;68.40
76967;DHT22;65904;52.278;20.972;2023-07-09T10:24:50;28.80;68.10
76967;DHT22;65904;52.278;20.972;2023-07-09T10:27:48;28.70;69.40
76967;DHT22;65904;52.278;20.972;2023-07-09T10:30:45;29.00;69.40
76967;DHT22;65904;52.278;20.972;2023-07-09T10:33:45;29.50;69.30
76967;DHT22;65904;52.278;20.972;2023-07-09T10:36:46;29.90;67.50
76967;DHT22;65904;52.278;20.972;2023-07-09T10:39:36;29.90;65.70
76967;DHT22;65904;52.278;20.972;2023-07-09T10:42:26;29.50;64.40
76967;DHT22;65904;52.278;20.972;2023-07-09T10:45:15;29.40;63.60
76967;DHT22;65904;52.278;20.972;2023-07-09T10:48:06;29.40;63.30
76967;DHT22;65904;52.278;20.972;2023-07-09T10:50:54;29.40;63.30
76967;DHT22;65904;52.278;20.972;2023-07-09T10:53:44;29.70;61.40
76967;DHT22;65904;52.278;20.972;2023-07-09T10:56:33;29.60;62.50
76967;DHT22;65904;52.278;20.972;2023-07-09T10:59:24;30.20;63.60
76967;DHT22;65904;52.278;20.972;2023-07-09T11:02:18;30.80;60.20
76967;DHT22;65904;52.278;20.972;2023-07-09T11:05:06;31.20;58.20
76967;DHT22;65904;52.278;20.972;2023-07-09T11:07:59;30.70;57.20
76967;DHT22;65904;52.278;20.972;2023-07-09T11:10:53;30.70;57.90
76967;DHT22;65904;52.278;20.972;2023-07-09T11:13:42;30.70;57.50
76967;DHT22;65904;52.278;20.972;2023-07-09T11:16:30;30.90;57.90
76967;DHT22;65904;52.278;20.972;2023-07-09T11:19:18;31.30;57.80
76967;DHT22;65904;52.278;20.972;2023-07-09T11:22:35;31.20;55.20
76967;DHT22;65904;52.278;20.972;2023-07-09T11:25:31;31.00;54.60
76967;DHT22;65904;52.278;20.972;2023-07-09T11:28:33;31.40;54.50
76967;DHT22;65904;52.278;20.972;2023-07-09T11:31:22;31.10;53.50
76967;DHT22;65904;52.278;20.972;2023-07-09T11:34:14;31.80;53.60
76967;DHT22;65904;52.278;20.972;2023-07-09T11:37:02;32.40;51.90
76967;DHT22;65904;52.278;20.972;2023-07-09T11:39:48;33.50;52.80
76967;DHT22;65904;52.278;20.972;2023-07-09T11:42:47;34.60;50.60
76967;DHT22;65904;52.278;20.972;2023-07-09T11:45:36;35.60;47.70
76967;DHT22;65904;52.278;20.972;2023-07-09T11:48:25;36.00;47.80
76967;DHT22;65904;52.278;20.972;2023-07-09T11:51:16;36.60;46.40
76967;DHT22;65904;52.278;20.972;2023-07-09T11:54:02;35.50;46.00
76967;DHT22;65904;52.278;20.972;2023-07-09T11:56:56;35.70;45.90
76967;DHT22;65904;52.278;20.972;2023-07-09T11:59:42;36.00;45.30
76967;DHT22;65904;52.278;20.972;2023-07-09T12:02:33;36.40;45.00
76967;DHT22;65904;52.278;20.972;2023-07-09T12:05:24;36.30;44.30
76967;DHT22;65904;52.278;20.972;2023-07-09T12:08:15;36.80;44.70
76967;DHT22;65904;52.278;20.972;2023-07-09T12:11:01;37.10;43.40
76967;DHT22;65904;52.278;20.972;2023-07-09T12:13:48;37.70;42.50
76967;DHT22;65904;52.278;20.972;2023-07-09T12:16:36;36.70;42.90
76967;DHT22;65904;52.278;20.972;2023-07-09T12:19:29;37.20;43.20
76967;DHT22;65904;52.278;20.972;2023-07-09T12:22:18;36.10;42.10
76967;DHT22;65904;52.278;20.972;2023-07-09T12:25:18;36.70;42.60
76967;DHT22;65904;52.278;20.972;2023-07-09T12:28:04;37.40;41.60
76967;DHT22;65904;52.278;20.972;2023-07-09T12:30:52;37.80;41.40
76967;DHT22;65904;52.278;20.972;2023-07-09T12:33:45;39.10;40.80
76967;DHT22;65904;52.278;20.972;2023-07-09T12:36:35;37.80;40.80
76967;DHT22;65904;52.278;20.972;2023-07-09T12:39:24;38.40;40.10
76967;DHT22;65904;52.278;20.972;2023-07-09T12:42:16;38.30;40.20
76967;DHT22;65904;52.278;20.972;2023-07-09T12:45:03;40.40;39.60
76967;DHT22;65904;52.278;20.972;2023-07-09T12:47:50;40.10;37.80
76967;DHT22;65904;52.278;20.972;2023-07-09T12:50:36;39.90;38.00
76967;DHT22;65904;52.278;20.972;2023-07-09T12:53:26;39.80;37.10
76967;DHT22;65904;52.278;20.972;2023-07-09T12:56:15;39.20;38.60
76967;DHT22;65904;52.278;20.972;2023-07-09T12:59:02;40.20;37.50
76967;DHT22;65904;52.278;20.972;2023-07-09T13:01:56;39.70;35.90
76967;DHT22;65904;52.278;20.972;2023-07-09T13:04:43;39.90;35.80
76967;DHT22;65904;52.278;20.972;2023-07-09T13:07:32;39.30;36.30
76967;DHT22;65904;52.278;20.972;2023-07-09T13:10:24;40.10;36.40
76967;DHT22;65904;52.278;20.972;2023-07-09T13:13:13;40.00;36.80
76967;DHT22;65904;52.278;20.972;2023-07-09T13:16:01;39.70;36.30
76967;DHT22;65904;52.278;20.972;2023-07-09T13:18:48;40.70;36.40
76967;DHT22;65904;52.278;20.972;2023-07-09T13:21:36;42.00;35.50
76967;DHT22;65904;52.278;20.972;2023-07-09T13:24:25;40.90;34.70
76967;DHT22;65904;52.278;20.972;2023-07-09T13:27:15;39.90;35.60
76967;DHT22;65904;52.278;20.972;2023-07-09T13:30:02;40.10;36.00
76967;DHT22;65904;52.278;20.972;2023-07-09T13:32:49;40.40;34.70
76967;DHT22;65904;52.278;20.972;2023-07-09T13:35:36;39.00;34.80
76967;DHT22;65904;52.278;20.972;2023-07-09T13:38:23;39.10;35.10
76967;DHT22;65904;52.278;20.972;2023-07-09T13:41:12;39.50;35.10
76967;DHT22;65904;52.278;20.972;2023-07-09T13:44:01;40.10;34.70
76967;DHT22;65904;52.278;20.972;2023-07-09T13:46:48;40.90;33.80
76967;DHT22;65904;52.278;20.972;2023-07-09T13:49:36;41.10;33.50
76967;DHT22;65904;52.278;20.972;2023-07-09T13:52:23;42.10;33.50
76967;DHT22;65904;52.278;20.972;2023-07-09T13:55:17;42.60;32.60
76967;DHT22;65904;52.278;20.972;2023-07-09T13:58:04;42.60;32.60
76967;DHT22;65904;52.278;20.972;2023-07-09T14:00:56;41.90;31.80
76967;DHT22;65904;52.278;20.972;2023-07-09T14:03:44;41.70;32.80
76967;DHT22;65904;52.278;20.972;2023-07-09T14:06:30;41.40;32.70
76967;DHT22;65904;52.278;20.972;2023-07-09T14:09:16;41.50;33.00
76967;DHT22;65904;52.278;20.972;2023-07-09T14:12:04;42.90;32.30
76967;DHT22;65904;52.278;20.972;2023-07-09T14:14:52;43.00;31.80
76967;DHT22;65904;52.278;20.972;2023-07-09T14:17:40;42.70;32.40
76967;DHT22;65904;52.278;20.972;2023-07-09T14:20:26;42.80;32.30
76967;DHT22;65904;52.278;20.972;2023-07-09T14:23:13;42.90;32.80
76967;DHT22;65904;52.278;20.972;2023-07-09T14:26:00;43.20;31.50
76967;DHT22;65904;52.278;20.972;2023-07-09T14:28:46;41.60;32.50
76967;DHT22;65904;52.278;20.972;2023-07-09T14:31:32;42.80;32.40
76967;DHT22;65904;52.278;20.972;2023-07-09T14:34:22;43.30;32.20
76967;DHT22;65904;52.278;20.972;2023-07-09T14:37:09;42.70;32.10
76967;DHT22;65904;52.278;20.972;2023-07-09T14:39:55;43.50;32.40
76967;DHT22;65904;52.278;20.972;2023-07-09T14:42:43;44.20;31.80
76967;DHT22;65904;52.278;20.972;2023-07-09T14:45:29;45.10;31.90
76967;DHT22;65904;52.278;20.972;2023-07-09T14:48:19;44.10;31.40
76967;DHT22;65904;52.278;20.972;2023-07-09T14:51:13;43.90;31.50
76967;DHT22;65904;52.278;20.972;2023-07-09T14:54:00;43.40;31.60
76967;DHT22;65904;52.278;20.972;2023-07-09T14:56:46;41.90;32.30
76967;DHT22;65904;52.278;20.972;2023-07-09T14:59:33;41.20;32.20
76967;DHT22;65904;52.278;20.972;2023-07-09T15:02:25;40.30;33.40
76967;DHT22;65904;52.278;20.972;2023-07-09T15:05:18;40.40;34.10
76967;DHT22;65904;52.278;20.972;2023-07-09T15:08:12;42.30;32.80
76967;DHT22;65904;52.278;20.972;2023-07-09T15:10:59;42.00;33.00
76967;DHT22;65904;52.278;20.972;2023-07-09T15:13:46;41.10;32.80
76967;DHT22;65904;52.278;20.972;2023-07-09T15:16:33;41.90;33.50
76967;DHT22;65904;52.278;20.972;2023-07-09T15:19:21;42.90;33.10
76967;DHT22;65904;52.278;20.972;2023-07-09T15:22:23;42.90;32.30
76967;DHT22;65904;52.278;20.972;2023-07-09T15:25:17;42.80;32.20
76967;DHT22;65904;52.278;20.972;2023-07-09T15:28:05;43.20;31.90
76967;DHT22;65904;52.278;20.972;2023-07-09T15:30:51;43.00;32.60
76967;DHT22;65904;52.278;20.972;2023-07-09T15:33:38;42.00;32.70
76967;DHT22;65904;52.278;20.972;2023-07-09T15:36:24;43.00;32.20
76967;DHT22;65904;52.278;20.972;2023-07-09T15:39:11;41.70;31.90
76967;DHT22;65904;52.278;20.972;2023-07-09T15:41:58;41.40;33.20
76967;DHT22;65904;52.278;20.972;2023-07-09T15:44:45;41.80;33.00
76967;DHT22;65904;52.278;20.972;2023-07-09T15:47:31;42.60;32.70
76967;DHT22;65904;52.278;20.972;2023-07-09T15:50:19;43.00;31.90
76967;DHT22;65904;52.278;20.972;2023-07-09T15:53:10;41.90;32.10
76967;DHT22;65904;52.278;20.972;2023-07-09T15:55:58;41.90;32.80
76967;DHT22;65904;52.278;20.972;2023-07-09T15:58:46;42.30;31.80
76967;DHT22;65904;52.278;20.972;2023-07-09T16:01:33;42.70;31.80
76967;DHT22;65904;52.278;20.972;2023-07-09T16:04:19;43.20;32.20
76967;DHT22;65904;52.278;20.972;2023-07-09T16:07:05;43.80;31.50
76967;DHT22;65904;52.278;20.972;2023-07-09T16:09:51;43.30;31.30
76967;DHT22;65904;52.278;20.972;2023-07-09T16:12:38;42.70;31.40
76967;DHT22;65904;52.278;20.972;2023-07-09T16:15:25;42.00;31.90
76967;DHT22;65904;52.278;20.972;2023-07-09T16:18:12;41.90;32.40
76967;DHT22;65904;52.278;20.972;2023-07-09T16:21:00;42.30;32.00
76967;DHT22;65904;52.278;20.972;2023-07-09T16:23:46;41.40;31.80
76967;DHT22;65904;52.278;20.972;2023-07-09T16:26:33;40.40;33.50
76967;DHT22;65904;52.278;20.972;2023-07-09T16:29:24;39.80;33.70
76967;DHT22;65904;52.278;20.972;2023-07-09T16:32:12;39.00;34.30
76967;DHT22;65904;52.278;20.972;2023-07-09T16:34:58;37.80;34.50
76967;DHT22;65904;52.278;20.972;2023-07-09T16:37:45;36.70;36.00
76967;DHT22;65904;52.278;20.972;2023-07-09T16:40:32;35.70;37.80
76967;DHT22;65904;52.278;20.972;2023-07-09T16:43:19;35.30;38.40
76967;DHT22;65904;52.278;20.972;2023-07-09T16:46:12;34.70;39.30
76967;DHT22;65904;52.278;20.972;2023-07-09T16:49:22;34.50;39.60
76967;DHT22;65904;52.278;20.972;2023-07-09T16:52:14;33.60;40.20
76967;DHT22;65904;52.278;20.972;2023-07-09T16:55:00;33.20;40.80
76967;DHT22;65904;52.278;20.972;2023-07-09T16:57:51;32.90;41.20
76967;DHT22;65904;52.278;20.972;2023-07-09T17:00:37;32.60;41.30
76967;DHT22;65904;52.278;20.972;2023-07-09T17:03:24;32.30;41.20
76967;DHT22;65904;52.278;20.972;2023-07-09T17:06:11;32.10;42.00
76967;DHT22;65904;52.278;20.972;2023-07-09T17:08:58;31.80;42.30
76967;DHT22;65904;52.278;20.972;2023-07-09T17:11:44;31.50;42.90
76967;DHT22;65904;52.278;20.972;2023-07-09T17:14:31;31.30;43.70
76967;DHT22;65904;52.278;20.972;2023-07-09T17:17:20;31.10;43.80
76967;DHT22;65904;52.278;20.972;2023-07-09T17:20:10;31.00;44.10
76967;DHT22;65904;52.278;20.972;2023-07-09T17:22:58;30.90;44.60
76967;DHT22;65904;52.278;20.972;2023-07-09T17:25:46;30.90;44.30